Wetterdaten: Woche 25.02.08 - 02.03.08 (KW9)
Datum Zeit Temperatur Luftfeuchte Luftdruck Niederschlag Wind Richtung Sonnenschein Solar Taupunkt Windchill Windben
25.02.2008 00:00 4.6 C 89 % 1023.3 hPa 0.0 l/m 0.4 km/h (0 Bft) O-SO 0.00 h 0 W/m 3.0 C 4.6 C 1.1 km/h (1 Bft)
25.02.2008 01:00 3.8 C 92 % 1023.5 hPa 0.0 l/m 0.4 km/h (0 Bft) O-SO 0.00 h 0 W/m 2.5 C 3.8 C 1.4 km/h (1 Bft)
25.02.2008 02:00 3.3 C 92 % 1023.4 hPa 0.0 l/m 0.2 km/h (0 Bft) O-SO 0.00 h 0 W/m 2.1 C 3.3 C 0.7 km/h (0 Bft)
25.02.2008 03:00 2.5 C 95 % 1023.5 hPa 0.0 l/m 0.1 km/h (0 Bft) O-SO 0.00 h 0 W/m 1.8 C 2.5 C 0.4 km/h (0 Bft)
25.02.2008 04:00 2.2 C 96 % 1023.8 hPa 0.0 l/m 0.3 km/h (0 Bft) O-SO 0.00 h 0 W/m 1.7 C 2.2 C 0.8 km/h (0 Bft)
25.02.2008 05:00 2.2 C 97 % 1024.5 hPa 0.0 l/m 0.9 km/h (0 Bft) O-SO 0.00 h 0 W/m 1.8 C 2.1 C 1.7 km/h (1 Bft)
25.02.2008 06:00 1.8 C 97 % 1025.0 hPa 0.0 l/m 0.2 km/h (0 Bft) SO 0.00 h 0 W/m 1.4 C 1.8 C 0.7 km/h (0 Bft)
25.02.2008 07:00 1.7 C 97 % 1025.7 hPa 0.0 l/m 0.4 km/h (0 Bft) SO 0.05 h 18 W/m 1.4 C 1.7 C 1.3 km/h (1 Bft)
25.02.2008 08:00 3.2 C 98 % 1026.2 hPa 0.0 l/m 1.7 km/h (1 Bft) SO 0.38 h 89 W/m 2.8 C 3.1 C 3.1 km/h (1 Bft)
25.02.2008 09:00 6.0 C 89 % 1026.2 hPa 0.0 l/m 2.4 km/h (1 Bft) S-SO 1.00 h 282 W/m 4.2 C 5.7 C 4.4 km/h (1 Bft)
25.02.2008 10:00 9.6 C 77 % 1025.9 hPa 0.0 l/m 3.6 km/h (1 Bft) S-SO 1.00 h 296 W/m 5.7 C 9.6 C 7.1 km/h (2 Bft)
25.02.2008 11:00 11.3 C 69 % 1025.6 hPa 0.0 l/m 3.8 km/h (1 Bft) S-SO 1.00 h 344 W/m 5.9 C 11.3 C 7.7 km/h (2 Bft)
25.02.2008 12:00 12.8 C 63 % 1024.9 hPa 0.0 l/m 3.4 km/h (1 Bft) S-SO 1.00 h 379 W/m 5.9 C 12.8 C 6.3 km/h (2 Bft)
25.02.2008 13:00 14.0 C 58 % 1024.0 hPa 0.0 l/m 3.8 km/h (1 Bft) S 1.00 h 400 W/m 5.9 C 14.0 C 7.3 km/h (2 Bft)
25.02.2008 14:00 14.6 C 56 % 1023.2 hPa 0.0 l/m 3.5 km/h (1 Bft) S 0.83 h 365 W/m 5.9 C 14.6 C 6.7 km/h (2 Bft)
25.02.2008 15:00 15.2 C 52 % 1022.5 hPa 0.0 l/m 3.1 km/h (1 Bft) W 1.00 h 308 W/m 5.4 C 15.2 C 5.6 km/h (1 Bft)
25.02.2008 16:00 14.9 C 53 % 1022.2 hPa 0.0 l/m 2.9 km/h (1 Bft) S 1.00 h 178 W/m 5.4 C 14.9 C 6.0 km/h (2 Bft)
25.02.2008 17:00 13.7 C 56 % 1022.1 hPa 0.0 l/m 2.5 km/h (1 Bft) S-SO 0.50 h 48 W/m 5.0 C 13.7 C 4.6 km/h (1 Bft)
25.02.2008 18:00 10.9 C 63 % 1022.5 hPa 0.0 l/m 4.4 km/h (1 Bft) SO 0.00 h 5 W/m 4.2 C 10.8 C 5.7 km/h (1 Bft)
25.02.2008 19:00 8.8 C 72 % 1023.0 hPa 0.0 l/m 2.8 km/h (1 Bft) O-SO 0.00 h 0 W/m 4.1 C 8.6 C 3.7 km/h (1 Bft)
25.02.2008 20:00 7.1 C 79 % 1022.8 hPa 0.0 l/m 1.6 km/h (1 Bft) O-SO 0.00 h 0 W/m 3.7 C 6.9 C 2.5 km/h (1 Bft)
25.02.2008 21:00 5.6 C 84 % 1022.9 hPa 0.0 l/m 2.5 km/h (1 Bft) O-SO 0.00 h 0 W/m 3.1 C 5.4 C 3.5 km/h (1 Bft)
25.02.2008 22:00 4.7 C 86 % 1022.8 hPa 0.0 l/m 1.4 km/h (1 Bft) O-SO 0.00 h 0 W/m 2.6 C 4.7 C 2.1 km/h (1 Bft)
25.02.2008 23:00 4.0 C 88 % 1022.8 hPa 0.0 l/m 0.2 km/h (0 Bft) O-SO 0.00 h 0 W/m 2.2 C 4.0 C 0.6 km/h (0 Bft)
26.02.2008 00:00 3.1 C 91 % 1022.5 hPa 0.0 l/m 1.3 km/h (1 Bft) O-SO 0.00 h 0 W/m 1.8 C 2.9 C 1.9 km/h (1 Bft)
26.02.2008 01:00 2.6 C 94 % 1022.2 hPa 0.0 l/m 0.8 km/h (0 Bft) O-SO 0.00 h 0 W/m 1.7 C 2.6 C 1.2 km/h (1 Bft)
26.02.2008 02:00 1.8 C 95 % 1021.5 hPa 0.0 l/m 1.1 km/h (0 Bft) O-SO 0.00 h 0 W/m 1.1 C 1.8 C 1.7 km/h (1 Bft)
26.02.2008 03:00 1.5 C 96 % 1021.1 hPa 0.0 l/m 0.2 km/h (0 Bft) O-SO 0.00 h 0 W/m 1.0 C 1.5 C 0.7 km/h (0 Bft)
26.02.2008 04:00 1.0 C 97 % 1020.8 hPa 0.0 l/m 0.4 km/h (0 Bft) O-SO 0.00 h 0 W/m 0.5 C 1.0 C 0.9 km/h (0 Bft)
26.02.2008 05:00 0.6 C 98 % 1020.7 hPa 0.0 l/m 0.3 km/h (0 Bft) O-SO 0.00 h 0 W/m 0.3 C 0.6 C 0.9 km/h (0 Bft)
26.02.2008 06:00 -0.1 C 98 % 1020.8 hPa 0.0 l/m 0.3 km/h (0 Bft) O-SO 0.00 h 0 W/m -0.4 C -0.1 C 0.6 km/h (0 Bft)
26.02.2008 07:00 -0.3 C 98 % 1020.8 hPa 0.0 l/m 0.2 km/h (0 Bft) O-SO 0.05 h 22 W/m -0.5 C -0.3 C 0.3 km/h (0 Bft)
26.02.2008 08:00 0.9 C 99 % 1020.9 hPa 0.0 l/m 0.1 km/h (0 Bft) O-SO 0.28 h 87 W/m 0.8 C 0.9 C 0.5 km/h (0 Bft)
26.02.2008 09:00 2.8 C 100 % 1020.7 hPa 0.0 l/m 0.5 km/h (0 Bft) O-SO 0.28 h 154 W/m 2.7 C 2.8 C 1.7 km/h (1 Bft)
26.02.2008 10:00 5.7 C 90 % 1020.1 hPa 0.0 l/m 1.1 km/h (1 Bft) O-NO 0.27 h 224 W/m 4.2 C 5.6 C 2.4 km/h (1 Bft)
26.02.2008 11:00 10.8 C 71 % 1019.1 hPa 0.0 l/m 3.1 km/h (1 Bft) S 1.00 h 475 W/m 5.6 C 10.8 C 6.0 km/h (2 Bft)
26.02.2008 12:00 13.5 C 61 % 1017.8 hPa 0.0 l/m 6.2 km/h (2 Bft) S-SO 1.00 h 517 W/m 6.2 C 13.5 C 10.7 km/h (2 Bft)
26.02.2008 13:00 14.8 C 58 % 1016.6 hPa 0.0 l/m 5.3 km/h (1 Bft) W-SW 0.43 h 362 W/m 6.6 C 14.8 C 8.7 km/h (2 Bft)
26.02.2008 14:00 14.7 C 59 % 1016.0 hPa 0.0 l/m 9.3 km/h (2 Bft) W 0.43 h 274 W/m 6.7 C 14.7 C 13.3 km/h (3 Bft)
26.02.2008 15:00 14.9 C 59 % 1015.4 hPa 0.0 l/m 10.1 km/h (2 Bft) W-NW 0.47 h 209 W/m 6.9 C 14.9 C 15.4 km/h (3 Bft)
26.02.2008 16:00 14.4 C 60 % 1015.1 hPa 0.0 l/m 6.9 km/h (2 Bft) W 0.00 h 77 W/m 6.8 C 14.4 C 10.3 km/h (2 Bft)
26.02.2008 17:00 14.0 C 62 % 1014.9 hPa 0.0 l/m 2.4 km/h (1 Bft) W 0.00 h 18 W/m 6.8 C 14.0 C 4.8 km/h (1 Bft)
26.02.2008 18:00 13.9 C 58 % 1015.0 hPa 0.0 l/m 7.4 km/h (2 Bft) W 0.00 h 5 W/m 5.8 C 13.9 C 10.8 km/h (2 Bft)
26.02.2008 19:00 13.1 C 64 % 1015.4 hPa 0.0 l/m 9.4 km/h (2 Bft) W-NW 0.00 h 0 W/m 6.5 C 13.1 C 14.1 km/h (3 Bft)
26.02.2008 20:00 11.1 C 82 % 1015.8 hPa 1.0 l/m 11.5 km/h (2 Bft) W 0.00 h 0 W/m 8.2 C 11.1 C 16.7 km/h (3 Bft)
26.02.2008 21:00 10.0 C 93 % 1016.1 hPa 1.8 l/m 5.6 km/h (1 Bft) W 0.00 h 0 W/m 8.9 C 9.9 C 8.7 km/h (2 Bft)
26.02.2008 22:00 9.7 C 96 % 1015.7 hPa 0.6 l/m 3.7 km/h (1 Bft) W 0.00 h 0 W/m 9.1 C 9.6 C 6.2 km/h (2 Bft)
26.02.2008 23:00 9.7 C 96 % 1015.6 hPa 0.2 l/m 3.5 km/h (1 Bft) W 0.00 h 0 W/m 9.1 C 9.4 C 5.9 km/h (2 Bft)
27.02.2008 00:00 9.4 C 97 % 1015.4 hPa 1.0 l/m 0.3 km/h (0 Bft) W-SW 0.00 h 0 W/m 9.0 C 9.4 C 1.2 km/h (1 Bft)
27.02.2008 01:00 9.1 C 99 % 1015.6 hPa 1.4 l/m 1.4 km/h (1 Bft) SW 0.00 h 0 W/m 9.0 C 9.1 C 3.9 km/h (1 Bft)
27.02.2008 02:00 9.1 C 100 % 1015.6 hPa 1.0 l/m 2.8 km/h (1 Bft) SW 0.00 h 0 W/m 9.1 C 9.0 C 5.6 km/h (1 Bft)
27.02.2008 03:00 9.3 C 100 % 1015.5 hPa 1.4 l/m 7.9 km/h (2 Bft) W-SW 0.00 h 0 W/m 9.2 C 8.2 C 12.8 km/h (3 Bft)
27.02.2008 04:00 9.1 C 96 % 1015.6 hPa 0.2 l/m 12.4 km/h (3 Bft) W 0.00 h 0 W/m 8.4 C 7.2 C 19.0 km/h (3 Bft)
27.02.2008 05:00 8.2 C 89 % 1016.3 hPa 0.0 l/m 20.3 km/h (4 Bft) W 0.00 h 0 W/m 6.5 C 5.1 C 29.1 km/h (5 Bft)
27.02.2008 06:00 7.6 C 87 % 1017.4 hPa 0.0 l/m 11.8 km/h (2 Bft) W 0.00 h 0 W/m 5.6 C 5.5 C 17.9 km/h (3 Bft)
27.02.2008 07:00 7.3 C 84 % 1018.4 hPa 0.0 l/m 12.4 km/h (3 Bft) W 0.02 h 21 W/m 4.9 C 5.0 C 18.9 km/h (3 Bft)
27.02.2008 08:00 7.5 C 81 % 1019.4 hPa 0.0 l/m 10.2 km/h (2 Bft) W 0.58 h 121 W/m 4.4 C 5.7 C 15.4 km/h (3 Bft)
27.02.2008 09:00 7.9 C 76 % 1019.8 hPa 0.0 l/m 11.5 km/h (2 Bft) W 0.68 h 212 W/m 3.9 C 5.9 C 17.8 km/h (3 Bft)
27.02.2008 10:00 8.6 C 72 % 1020.0 hPa 0.0 l/m 12.5 km/h (3 Bft) W 0.88 h 416 W/m 3.7 C 6.6 C 19.4 km/h (3 Bft)
27.02.2008 11:00 9.1 C 67 % 1020.2 hPa 0.0 l/m 14.7 km/h (3 Bft) W 0.30 h 296 W/m 3.3 C 6.9 C 22.2 km/h (4 Bft)
27.02.2008 12:00 9.8 C 63 % 1020.1 hPa 0.0 l/m 14.6 km/h (3 Bft) W 0.50 h 373 W/m 3.2 C 8.6 C 21.7 km/h (4 Bft)
27.02.2008 13:00 10.5 C 59 % 1019.8 hPa 0.0 l/m 16.4 km/h (3 Bft) W 0.60 h 404 W/m 2.8 C 10.5 C 23.6 km/h (4 Bft)
27.02.2008 14:00 10.5 C 60 % 1019.7 hPa 0.0 l/m 15.0 km/h (3 Bft) W 0.75 h 298 W/m 3.0 C 10.5 C 22.6 km/h (4 Bft)
27.02.2008 15:00 10.7 C 60 % 1019.7 hPa 0.0 l/m 16.4 km/h (3 Bft) W 0.75 h 287 W/m 3.2 C 10.7 C 24.1 km/h (4 Bft)
27.02.2008 16:00 10.0 C 61 % 1020.1 hPa 0.0 l/m 11.1 km/h (2 Bft) W 0.33 h 113 W/m 2.8 C 8.9 C 16.5 km/h (3 Bft)
27.02.2008 17:00 9.6 C 59 % 1020.7 hPa 0.0 l/m 11.7 km/h (2 Bft) W-NW 0.60 h 52 W/m 2.0 C 7.9 C 17.2 km/h (3 Bft)
27.02.2008 18:00 8.8 C 60 % 1021.3 hPa 0.0 l/m 7.2 km/h (2 Bft) W-NW 0.00 h 5 W/m 1.5 C 7.8 C 10.6 km/h (2 Bft)
27.02.2008 19:00 8.2 C 63 % 1021.9 hPa 0.0 l/m 4.9 km/h (1 Bft) W-NW 0.00 h 0 W/m 1.5 C 7.8 C 7.4 km/h (2 Bft)
27.02.2008 20:00 7.6 C 67 % 1022.3 hPa 0.0 l/m 0.8 km/h (0 Bft) W-NW 0.00 h 0 W/m 1.8 C 7.6 C 1.5 km/h (1 Bft)
27.02.2008 21:00 6.4 C 77 % 1023.0 hPa 0.0 l/m 0.4 km/h (0 Bft) W-NW 0.00 h 0 W/m 2.6 C 6.4 C 0.7 km/h (0 Bft)
27.02.2008 22:00 5.8 C 79 % 1023.4 hPa 0.0 l/m 0.0 km/h (0 Bft) N 0.00 h 0 W/m 2.5 C 5.8 C 0.3 km/h (0 Bft)
27.02.2008 23:00 5.3 C 80 % 1023.5 hPa 0.0 l/m 0.1 km/h (0 Bft) W-NW 0.00 h 0 W/m 2.1 C 5.3 C 0.3 km/h (0 Bft)
28.02.2008 00:00 4.9 C 81 % 1023.4 hPa 0.0 l/m 0.0 km/h (0 Bft) N 0.00 h 0 W/m 1.9 C 4.9 C 0.4 km/h (0 Bft)
28.02.2008 01:00 4.5 C 83 % 1023.3 hPa 0.0 l/m 0.2 km/h (0 Bft) W 0.00 h 0 W/m 1.9 C 4.5 C 0.6 km/h (0 Bft)
28.02.2008 02:00 4.0 C 85 % 1023.2 hPa 0.0 l/m 0.1 km/h (0 Bft) W 0.00 h 0 W/m 1.7 C 4.0 C 0.3 km/h (0 Bft)
28.02.2008 03:00 3.4 C 86 % 1023.0 hPa 0.0 l/m 0.4 km/h (0 Bft) W 0.00 h 0 W/m 1.3 C 3.4 C 0.9 km/h (0 Bft)
28.02.2008 04:00 2.9 C 87 % 1023.1 hPa 0.0 l/m 0.2 km/h (0 Bft) W-SW 0.00 h 0 W/m 0.9 C 2.9 C 0.8 km/h (0 Bft)
28.02.2008 05:00 2.3 C 88 % 1023.2 hPa 0.0 l/m 0.0 km/h (0 Bft) W-SW 0.00 h 0 W/m 0.5 C 2.3 C 0.5 km/h (0 Bft)
28.02.2008 06:00 1.5 C 89 % 1023.7 hPa 0.0 l/m 0.1 km/h (0 Bft) W-SW 0.00 h 0 W/m -0.2 C 1.5 C 0.5 km/h (0 Bft)
28.02.2008 07:00 0.8 C 90 % 1023.9 hPa 0.0 l/m 0.0 km/h (0 Bft) N 0.27 h 28 W/m -0.7 C 0.8 C 0.4 km/h (0 Bft)
28.02.2008 08:00 1.7 C 88 % 1024.3 hPa 0.0 l/m 0.1 km/h (0 Bft) W-SW 1.00 h 148 W/m -0.1 C 1.7 C 0.5 km/h (0 Bft)
28.02.2008 09:00 3.8 C 80 % 1024.3 hPa 0.0 l/m 1.4 km/h (1 Bft) W-SW 1.00 h 290 W/m 0.7 C 3.8 C 3.1 km/h (1 Bft)
28.02.2008 10:00 6.3 C 71 % 1023.7 hPa 0.0 l/m 2.0 km/h (1 Bft) W-NW 1.00 h 418 W/m 1.5 C 6.3 C 4.1 km/h (1 Bft)
28.02.2008 11:00 8.7 C 65 % 1023.2 hPa 0.0 l/m 2.7 km/h (1 Bft) W-NW 0.95 h 483 W/m 2.5 C 8.6 C 4.5 km/h (1 Bft)
28.02.2008 12:00 10.3 C 61 % 1022.9 hPa 0.0 l/m 1.8 km/h (1 Bft) N-NW 0.62 h 361 W/m 3.1 C 10.3 C 3.6 km/h (1 Bft)
28.02.2008 13:00 11.8 C 59 % 1022.4 hPa 0.0 l/m 2.7 km/h (1 Bft) NW 1.00 h 398 W/m 4.1 C 11.8 C 5.0 km/h (1 Bft)
28.02.2008 14:00 12.4 C 57 % 1022.2 hPa 0.0 l/m 3.1 km/h (1 Bft) W-NW 0.32 h 250 W/m 4.2 C 12.4 C 5.6 km/h (1 Bft)
28.02.2008 15:00 12.6 C 60 % 1022.1 hPa 0.0 l/m 3.4 km/h (1 Bft) S 0.13 h 167 W/m 5.0 C 12.6 C 6.7 km/h (2 Bft)
28.02.2008 16:00 12.3 C 62 % 1021.8 hPa 0.0 l/m 2.8 km/h (1 Bft) S 0.23 h 116 W/m 5.3 C 12.3 C 6.1 km/h (2 Bft)
28.02.2008 17:00 11.4 C 65 % 1022.1 hPa 0.0 l/m 2.0 km/h (1 Bft) S 0.00 h 20 W/m 5.1 C 11.4 C 5.0 km/h (1 Bft)
28.02.2008 18:00 10.7 C 67 % 1022.4 hPa 0.0 l/m 1.2 km/h (1 Bft) S-SO 0.00 h 5 W/m 4.7 C 10.7 C 3.3 km/h (1 Bft)
28.02.2008 19:00 10.0 C 71 % 1023.0 hPa 0.0 l/m 1.3 km/h (1 Bft) S 0.00 h 0 W/m 4.9 C 10.0 C 2.6 km/h (1 Bft)
28.02.2008 20:00 9.9 C 71 % 1023.2 hPa 0.0 l/m 0.5 km/h (0 Bft) S 0.00 h 0 W/m 5.0 C 9.9 C 1.8 km/h (1 Bft)
28.02.2008 21:00 9.8 C 72 % 1023.2 hPa 0.0 l/m 1.4 km/h (1 Bft) S-SO 0.00 h 0 W/m 5.0 C 9.7 C 3.8 km/h (1 Bft)
28.02.2008 22:00 9.4 C 75 % 1022.9 hPa 0.0 l/m 2.0 km/h (1 Bft) SW 0.00 h 0 W/m 5.1 C 9.3 C 4.5 km/h (1 Bft)
28.02.2008 23:00 9.5 C 75 % 1022.6 hPa 0.0 l/m 2.8 km/h (1 Bft) S 0.00 h 0 W/m 5.3 C 9.4 C 5.5 km/h (1 Bft)
29.02.2008 00:00 9.5 C 75 % 1022.4 hPa 0.0 l/m 1.9 km/h (1 Bft) S-SW 0.00 h 0 W/m 5.3 C 9.5 C 4.2 km/h (1 Bft)
29.02.2008 01:00 9.5 C 76 % 1022.0 hPa 0.0 l/m 2.2 km/h (1 Bft) S-SW 0.00 h 0 W/m 5.5 C 9.5 C 5.2 km/h (1 Bft)
29.02.2008 02:00 9.5 C 76 % 1021.4 hPa 0.0 l/m 3.0 km/h (1 Bft) S-SW 0.00 h 0 W/m 5.6 C 9.5 C 6.4 km/h (2 Bft)
29.02.2008 03:00 9.3 C 78 % 1020.9 hPa 0.0 l/m 1.2 km/h (1 Bft) S 0.00 h 0 W/m 5.7 C 9.2 C 3.0 km/h (1 Bft)
29.02.2008 04:00 8.8 C 82 % 1020.7 hPa 0.0 l/m 0.3 km/h (0 Bft) S-SW 0.00 h 0 W/m 5.9 C 8.8 C 1.3 km/h (1 Bft)
29.02.2008 05:00 8.0 C 92 % 1021.1 hPa 0.6 l/m 1.0 km/h (0 Bft) SO 0.00 h 0 W/m 6.7 C 8.0 C 2.0 km/h (1 Bft)
29.02.2008 06:00 8.1 C 97 % 1021.1 hPa 0.2 l/m 1.2 km/h (1 Bft) S 0.00 h 0 W/m 7.7 C 8.1 C 2.9 km/h (1 Bft)
29.02.2008 07:00 8.6 C 98 % 1021.0 hPa 0.2 l/m 4.0 km/h (1 Bft) S 0.00 h 11 W/m 8.3 C 8.2 C 8.0 km/h (2 Bft)
29.02.2008 08:00 8.4 C 96 % 1021.2 hPa 0.2 l/m 5.3 km/h (1 Bft) S 0.00 h 14 W/m 7.9 C 7.8 C 10.1 km/h (2 Bft)
29.02.2008 09:00 8.6 C 96 % 1021.3 hPa 0.2 l/m 4.8 km/h (1 Bft) S-SW 0.00 h 44 W/m 8.0 C 8.2 C 9.6 km/h (2 Bft)
29.02.2008 10:00 8.7 C 95 % 1021.3 hPa 0.2 l/m 4.7 km/h (1 Bft) S-SW 0.00 h 48 W/m 8.0 C 8.3 C 8.6 km/h (2 Bft)
29.02.2008 11:00 9.2 C 97 % 1021.4 hPa 0.4 l/m 6.3 km/h (2 Bft) W-SW 0.00 h 75 W/m 8.7 C 8.5 C 10.9 km/h (2 Bft)
29.02.2008 12:00 10.5 C 88 % 1021.1 hPa 0.0 l/m 10.8 km/h (2 Bft) W-SW 0.00 h 144 W/m 8.6 C 10.2 C 16.6 km/h (3 Bft)
29.02.2008 13:00 11.0 C 88 % 1020.2 hPa 0.0 l/m 4.4 km/h (1 Bft) SW 0.00 h 167 W/m 9.0 C 11.0 C 8.2 km/h (2 Bft)
29.02.2008 14:00 11.8 C 81 % 1019.6 hPa 0.0 l/m 4.0 km/h (1 Bft) W-SW 0.00 h 112 W/m 8.7 C 11.8 C 7.5 km/h (2 Bft)
29.02.2008 15:00 12.0 C 76 % 1019.2 hPa 0.0 l/m 6.4 km/h (2 Bft) W-SW 0.00 h 54 W/m 7.9 C 12.0 C 10.9 km/h (2 Bft)
29.02.2008 16:00 11.7 C 77 % 1019.0 hPa 0.0 l/m 4.8 km/h (1 Bft) SW 0.00 h 39 W/m 7.7 C 11.7 C 8.6 km/h (2 Bft)
29.02.2008 17:00 11.7 C 76 % 1018.3 hPa 0.0 l/m 5.5 km/h (1 Bft) SW 0.00 h 26 W/m 7.6 C 11.7 C 10.0 km/h (2 Bft)
29.02.2008 18:00 11.7 C 75 % 1017.6 hPa 0.0 l/m 6.0 km/h (2 Bft) SW 0.00 h 0 W/m 7.4 C 11.7 C 11.0 km/h (2 Bft)
29.02.2008 19:00 12.2 C 71 % 1017.3 hPa 0.0 l/m 8.8 km/h (2 Bft) SW 0.00 h 0 W/m 7.0 C 12.2 C 15.7 km/h (3 Bft)
29.02.2008 20:00 12.1 C 71 % 1016.8 hPa 0.0 l/m 7.6 km/h (2 Bft) SW 0.00 h 0 W/m 6.9 C 12.1 C 13.6 km/h (3 Bft)
29.02.2008 21:00 12.1 C 70 % 1016.4 hPa 0.0 l/m 7.0 km/h (2 Bft) W-SW 0.00 h 0 W/m 6.8 C 12.1 C 11.5 km/h (2 Bft)
29.02.2008 22:00 12.2 C 69 % 1015.8 hPa 0.0 l/m 11.0 km/h (2 Bft) W-SW 0.00 h 0 W/m 6.7 C 12.2 C 17.0 km/h (3 Bft)
29.02.2008 23:00 12.4 C 67 % 1014.1 hPa 0.0 l/m 7.8 km/h (2 Bft) W-SW 0.00 h 0 W/m 6.6 C 12.4 C 12.6 km/h (3 Bft)
01.03.2008 00:00 12.0 C 72 % 1012.3 hPa 0.4 l/m 13.2 km/h (3 Bft) W 0.00 h 0 W/m 7.1 C 12.0 C 20.4 km/h (4 Bft)
01.03.2008 01:00 11.0 C 82 % 1011.6 hPa 1.2 l/m 14.1 km/h (3 Bft) W 0.00 h 0 W/m 7.9 C 11.0 C 20.5 km/h (4 Bft)
01.03.2008 02:00 10.2 C 87 % 1010.5 hPa 1.0 l/m 10.4 km/h (2 Bft) W-SW 0.00 h 0 W/m 8.2 C 9.9 C 15.5 km/h (3 Bft)
01.03.2008 03:00 10.2 C 87 % 1009.5 hPa 0.6 l/m 11.3 km/h (2 Bft) W-SW 0.00 h 0 W/m 8.1 C 10.2 C 17.9 km/h (3 Bft)
01.03.2008 04:00 10.3 C 85 % 1008.4 hPa 1.0 l/m 11.7 km/h (2 Bft) W-SW 0.00 h 0 W/m 8.0 C 10.3 C 18.1 km/h (3 Bft)
01.03.2008 05:00 10.0 C 88 % 1008.0 hPa 2.8 l/m 15.2 km/h (3 Bft) W-SW 0.00 h 0 W/m 8.0 C 9.0 C 23.5 km/h (4 Bft)
01.03.2008 06:00 9.6 C 91 % 1006.9 hPa 2.6 l/m 14.1 km/h (3 Bft) W-SW 0.00 h 0 W/m 8.1 C 7.6 C 22.2 km/h (4 Bft)
01.03.2008 07:00 9.5 C 92 % 1005.9 hPa 3.2 l/m 15.5 km/h (3 Bft) W-SW 0.00 h 6 W/m 8.3 C 7.3 C 23.9 km/h (4 Bft)
01.03.2008 08:00 9.7 C 92 % 1005.8 hPa 1.2 l/m 13.5 km/h (3 Bft) W-SW 0.00 h 16 W/m 8.4 C 7.7 C 21.8 km/h (4 Bft)
01.03.2008 09:00 11.6 C 79 % 1006.1 hPa 0.2 l/m 23.1 km/h (4 Bft) W 0.00 h 59 W/m 8.1 C 11.6 C 36.3 km/h (5 Bft)
01.03.2008 10:00 12.7 C 71 % 1006.5 hPa 0.8 l/m 34.1 km/h (5 Bft) W 0.00 h 88 W/m 7.6 C 12.7 C 47.9 km/h (6 Bft)
01.03.2008 11:00 11.0 C 84 % 1007.7 hPa 1.4 l/m 33.2 km/h (5 Bft) W 0.07 h 175 W/m 8.4 C 11.0 C 46.8 km/h (6 Bft)
01.03.2008 12:00 10.3 C 86 % 1009.8 hPa 1.0 l/m 27.0 km/h (4 Bft) W 0.00 h 147 W/m 8.1 C 9.8 C 39.1 km/h (6 Bft)
01.03.2008 13:00 10.8 C 79 % 1010.5 hPa 0.0 l/m 24.9 km/h (4 Bft) W 0.38 h 300 W/m 7.4 C 10.8 C 35.1 km/h (5 Bft)
01.03.2008 14:00 12.0 C 70 % 1011.0 hPa 0.0 l/m 21.8 km/h (4 Bft) W 0.23 h 250 W/m 6.7 C 12.0 C 32.4 km/h (5 Bft)
01.03.2008 15:00 12.0 C 65 % 1011.4 hPa 0.0 l/m 19.5 km/h (3 Bft) W 0.63 h 273 W/m 5.6 C 12.0 C 28.4 km/h (4 Bft)
01.03.2008 16:00 12.4 C 57 % 1011.7 hPa 0.0 l/m 17.6 km/h (3 Bft) W 0.25 h 122 W/m 4.1 C 12.4 C 25.4 km/h (4 Bft)
01.03.2008 17:00 12.0 C 60 % 1012.4 hPa 0.0 l/m 18.7 km/h (3 Bft) W 0.00 h 25 W/m 4.5 C 12.0 C 28.2 km/h (4 Bft)
01.03.2008 18:00 11.8 C 60 % 1013.6 hPa 0.0 l/m 16.7 km/h (3 Bft) W 0.00 h 6 W/m 4.4 C 11.8 C 25.1 km/h (4 Bft)
01.03.2008 19:00 11.7 C 59 % 1014.6 hPa 0.2 l/m 18.3 km/h (3 Bft) W 0.00 h 0 W/m 4.0 C 11.7 C 28.2 km/h (4 Bft)
01.03.2008 20:00 11.5 C 59 % 1014.9 hPa 0.0 l/m 16.8 km/h (3 Bft) W 0.00 h 0 W/m 3.6 C 11.5 C 25.5 km/h (4 Bft)
01.03.2008 21:00 11.2 C 61 % 1015.2 hPa 0.0 l/m 18.7 km/h (3 Bft) W 0.00 h 0 W/m 4.0 C 11.2 C 27.6 km/h (4 Bft)
01.03.2008 22:00 10.9 C 63 % 1015.7 hPa 0.0 l/m 18.4 km/h (3 Bft) W 0.00 h 0 W/m 4.2 C 10.9 C 27.1 km/h (4 Bft)
01.03.2008 23:00 10.6 C 64 % 1016.3 hPa 0.0 l/m 20.6 km/h (4 Bft) W 0.00 h 0 W/m 4.1 C 10.6 C 32.0 km/h (5 Bft)
02.03.2008 00:00 10.6 C 64 % 1016.4 hPa 0.0 l/m 20.6 km/h (4 Bft) W 0.00 h 0 W/m 4.0 C 10.6 C 30.4 km/h (5 Bft)
02.03.2008 01:00 10.6 C 63 % 1016.4 hPa 0.0 l/m 19.5 km/h (3 Bft) W 0.00 h 0 W/m 3.9 C 10.6 C 29.1 km/h (5 Bft)
02.03.2008 02:00 10.2 C 64 % 1016.3 hPa 0.0 l/m 22.0 km/h (4 Bft) W 0.00 h 0 W/m 3.8 C 10.2 C 32.4 km/h (5 Bft)
02.03.2008 03:00 10.1 C 64 % 1015.8 hPa 0.0 l/m 22.5 km/h (4 Bft) W 0.00 h 0 W/m 3.6 C 10.1 C 32.8 km/h (5 Bft)
02.03.2008 04:00 9.9 C 60 % 1015.6 hPa 0.0 l/m 14.5 km/h (3 Bft) W 0.00 h 0 W/m 2.6 C 8.1 C 22.3 km/h (4 Bft)
02.03.2008 05:00 9.7 C 67 % 1015.7 hPa 0.0 l/m 9.7 km/h (2 Bft) W-SW 0.00 h 0 W/m 3.8 C 8.5 C 16.5 km/h (3 Bft)
02.03.2008 06:00 9.5 C 71 % 1015.7 hPa 0.0 l/m 8.3 km/h (2 Bft) W-SW 0.00 h 0 W/m 4.5 C 8.4 C 14.2 km/h (3 Bft)
02.03.2008 07:00 9.7 C 72 % 1015.8 hPa 0.0 l/m 7.8 km/h (2 Bft) W-SW 0.00 h 8 W/m 4.9 C 8.8 C 14.2 km/h (3 Bft)
02.03.2008 08:00 10.0 C 71 % 1015.9 hPa 0.0 l/m 8.6 km/h (2 Bft) W-SW 0.00 h 15 W/m 4.9 C 9.3 C 15.7 km/h (3 Bft)
02.03.2008 09:00 10.4 C 70 % 1016.3 hPa 0.0 l/m 8.4 km/h (2 Bft) SW 0.00 h 26 W/m 5.1 C 10.4 C 14.4 km/h (3 Bft)
02.03.2008 10:00 11.2 C 69 % 1016.4 hPa 0.0 l/m 10.7 km/h (2 Bft) W 0.00 h 34 W/m 5.7 C 11.2 C 17.4 km/h (3 Bft)
02.03.2008 11:00 12.1 C 66 % 1016.3 hPa 0.0 l/m 19.1 km/h (3 Bft) W 0.00 h 101 W/m 5.9 C 12.1 C 28.7 km/h (4 Bft)
02.03.2008 12:00 12.7 C 64 % 1016.2 hPa 0.0 l/m 20.7 km/h (4 Bft) W 0.00 h 171 W/m 6.1 C 12.7 C 30.9 km/h (5 Bft)
02.03.2008 13:00 13.4 C 61 % 1015.6 hPa 0.0 l/m 23.4 km/h (4 Bft) W 0.62 h 323 W/m 6.0 C 13.4 C 33.8 km/h (5 Bft)
02.03.2008 14:00 13.4 C 60 % 1015.4 hPa 0.0 l/m 16.9 km/h (3 Bft) W-NW 0.07 h 210 W/m 5.8 C 13.4 C 24.5 km/h (4 Bft)
02.03.2008 15:00 13.5 C 61 % 1015.2 hPa 0.0 l/m 16.2 km/h (3 Bft) W 0.35 h 204 W/m 6.2 C 13.5 C 25.1 km/h (4 Bft)
02.03.2008 16:00 13.0 C 64 % 1015.2 hPa 0.0 l/m 7.9 km/h (2 Bft) W 0.02 h 62 W/m 6.4 C 13.0 C 12.5 km/h (3 Bft)
02.03.2008 17:00 12.3 C 68 % 1015.6 hPa 0.0 l/m 9.4 km/h (2 Bft) W 0.00 h 31 W/m 6.6 C 12.3 C 15.1 km/h (3 Bft)
02.03.2008 18:00 11.6 C 73 % 1015.8 hPa 0.0 l/m 8.8 km/h (2 Bft) W-NW 0.00 h 5 W/m 7.0 C 11.6 C 14.2 km/h (3 Bft)
02.03.2008 19:00 11.2 C 75 % 1016.3 hPa 0.0 l/m 7.3 km/h (2 Bft) W 0.00 h 0 W/m 6.9 C 11.2 C 11.7 km/h (2 Bft)
02.03.2008 20:00 11.1 C 73 % 1016.4 hPa 0.0 l/m 10.3 km/h (2 Bft) W 0.00 h 0 W/m 6.4 C 11.1 C 16.3 km/h (3 Bft)
02.03.2008 21:00 10.7 C 75 % 1016.4 hPa 0.0 l/m 10.1 km/h (2 Bft) W 0.00 h 0 W/m 6.5 C 10.7 C 16.2 km/h (3 Bft)
02.03.2008 22:00 10.5 C 77 % 1016.3 hPa 0.0 l/m 6.4 km/h (2 Bft) W-NW 0.00 h 0 W/m 6.6 C 10.5 C 10.4 km/h (2 Bft)
02.03.2008 23:00 9.8 C 77 % 1015.7 hPa 0.0 l/m 1.4 km/h (1 Bft) W-SW 0.00 h 0 W/m 5.9 C 9.8 C 3.1 km/h (1 Bft)
Min-Datum _ 26.02.08 25.02.08 01.03.08 - 25.02.08 - - - 28.02.08 26.02.08 25.02.08
_ Min-Zeit 06:26 16:13 07:30 - 00:00 - - - 07:29 06:26 00:07
Minimum _ -0.6 C 49 % 1005.6 hPa - 0.0 km/h (0 Bft) - - - -1.1 C -0.6 C 0.0 km/h (0 Bft)
Max-Datum _ 25.02.08 26.02.08 25.02.08 01.03.08 01.03.08 - 25.02.08 27.02.08 29.02.08 25.02.08 01.03.08
_ Max-Zeit 16:12 08:37 08:15 07:00 10:49 - 07:27 13:14 13:24 16:12 10:49
Maximum _ 15.7 C 100 % 1026.3 hPa 3.2 l/m 58.9 km/h
W (7 Bft)
- 0.02 h 696 W/m 9.4 C 15.7 C 81.7 km/h
W (9 Bft)
Durchschnitt _ 9.1 C 77 % 1018.7 hPa #28.2 l/m 7.5 km/h (2 Bft) W #28:07 h 166 W/m 4.9 C 8.8 C 11.9 km/h (2 Bft)
© Kaiko 2008